createdAt,value
2022-09-23T00:00:28.132Z,84.15
2022-09-23T00:01:28.137Z,84.14
2022-09-23T00:02:28.164Z,84.19
2022-09-23T00:03:28.103Z,84.22
2022-09-23T00:04:28.129Z,84.30
2022-09-23T00:05:28.133Z,84.32
2022-09-23T00:06:28.077Z,84.29
2022-09-23T00:07:28.105Z,84.25
2022-09-23T00:08:28.074Z,84.29
2022-09-23T00:09:28.058Z,84.43
2022-09-23T00:10:28.025Z,84.55
2022-09-23T00:11:28.024Z,84.67
2022-09-23T00:12:28.010Z,84.79
2022-09-23T00:13:28.022Z,84.92
2022-09-23T00:14:27.985Z,85.04
2022-09-23T00:15:27.985Z,85.10
2022-09-23T00:16:28.011Z,85.22
2022-09-23T00:17:27.957Z,85.31
2022-09-23T00:18:27.968Z,85.38
2022-09-23T00:19:27.915Z,85.44
2022-09-23T00:20:27.915Z,85.51
2022-09-23T00:21:27.895Z,85.57
2022-09-23T00:22:27.874Z,85.64
2022-09-23T00:23:27.881Z,85.69
2022-09-23T00:24:27.861Z,85.72
2022-09-23T00:25:27.881Z,85.75
2022-09-23T00:26:27.842Z,85.80
2022-09-23T00:27:27.835Z,85.78
2022-09-23T00:28:27.853Z,85.77
2022-09-23T00:29:27.801Z,85.73
2022-09-23T00:30:27.855Z,85.72
2022-09-23T00:31:27.786Z,85.67
2022-09-23T00:32:27.756Z,85.67
2022-09-23T00:33:27.753Z,85.68
2022-09-23T00:34:27.761Z,85.68
2022-09-23T00:35:27.733Z,85.67
2022-09-23T00:36:27.729Z,85.61
2022-09-23T00:37:27.713Z,85.57
2022-09-23T00:38:27.699Z,85.54
2022-09-23T00:39:27.704Z,85.52
2022-09-23T00:40:27.735Z,85.49
2022-09-23T00:41:27.666Z,85.44
2022-09-23T00:42:27.669Z,85.41
2022-09-23T00:43:27.649Z,85.37
2022-09-23T00:44:27.644Z,85.35
2022-09-23T00:45:27.617Z,85.32
2022-09-23T00:46:27.680Z,85.34
2022-09-23T00:47:27.595Z,85.35
2022-09-23T00:48:27.616Z,85.39
2022-09-23T00:49:27.618Z,85.40
2022-09-23T00:50:27.562Z,85.43
2022-09-23T00:51:27.553Z,85.52
2022-09-23T00:52:27.546Z,85.59
2022-09-23T00:53:27.538Z,85.75
2022-09-23T00:54:27.535Z,85.88
2022-09-23T00:55:27.512Z,85.96
2022-09-23T00:56:27.511Z,86.04
2022-09-23T00:57:27.487Z,86.09
2022-09-23T00:58:27.481Z,86.16
2022-09-23T00:59:27.486Z,86.20
2022-09-23T01:00:27.448Z,86.26
2022-09-23T01:01:27.478Z,86.34
2022-09-23T01:02:27.501Z,86.43
2022-09-23T01:03:27.416Z,86.50
2022-09-23T01:04:27.409Z,86.60
2022-09-23T01:05:27.428Z,86.70
2022-09-23T01:06:27.383Z,86.83
2022-09-23T01:07:27.365Z,86.92
2022-09-23T01:08:27.353Z,86.98
2022-09-23T01:09:27.352Z,87.13
2022-09-23T01:10:27.337Z,87.26
2022-09-23T01:11:27.345Z,87.36
2022-09-23T01:12:27.315Z,87.42
2022-09-23T01:13:27.306Z,87.49
2022-09-23T01:14:27.283Z,87.51
2022-09-23T01:15:27.276Z,87.52
2022-09-23T01:16:27.345Z,87.58
2022-09-23T01:17:27.256Z,87.61
2022-09-23T01:18:27.248Z,87.66
2022-09-23T01:19:27.238Z,87.72
2022-09-23T01:20:27.227Z,87.80
2022-09-23T01:21:27.229Z,87.84
2022-09-23T01:22:27.231Z,87.89
2022-09-23T01:23:27.186Z,87.94
2022-09-23T01:24:27.195Z,87.93
2022-09-23T01:25:27.166Z,87.96
2022-09-23T01:26:27.167Z,87.96
2022-09-23T01:27:27.157Z,87.99
2022-09-23T01:28:27.125Z,87.97
2022-09-23T01:29:27.132Z,88.00
2022-09-23T01:30:27.153Z,88.03
2022-09-23T01:31:27.108Z,88.03
2022-09-23T01:32:27.081Z,88.01
2022-09-23T01:33:27.070Z,87.99
2022-09-23T01:34:27.057Z,87.98
2022-09-23T01:35:27.056Z,87.93
2022-09-23T01:36:27.047Z,87.88
2022-09-23T01:37:27.030Z,87.84
2022-09-23T01:38:27.017Z,87.77
2022-09-23T01:39:26.999Z,87.72
2022-09-23T01:40:27.011Z,87.61
2022-09-23T01:41:26.998Z,87.55
2022-09-23T01:42:26.968Z,87.52
2022-09-23T01:43:26.957Z,87.50
2022-09-23T01:44:26.945Z,87.47
2022-09-23T01:45:26.939Z,87.44
2022-09-23T01:46:26.931Z,87.38
2022-09-23T01:47:26.923Z,87.37
2022-09-23T01:48:26.952Z,87.36
2022-09-23T01:49:26.896Z,87.35
2022-09-23T01:50:26.876Z,87.33
2022-09-23T01:51:26.878Z,87.33
2022-09-23T01:52:26.875Z,87.33
2022-09-23T01:53:26.851Z,87.33
2022-09-23T01:54:26.839Z,87.33
2022-09-23T01:55:26.851Z,87.36
2022-09-23T01:56:26.809Z,87.36
2022-09-23T01:57:26.797Z,87.35
2022-09-23T01:58:26.809Z,87.34
2022-09-23T01:59:26.787Z,87.30
2022-09-23T02:00:26.764Z,87.26
2022-09-23T02:01:26.780Z,87.23
2022-09-23T02:02:26.841Z,87.21
2022-09-23T02:03:26.750Z,87.21
2022-09-23T02:04:26.718Z,87.19
2022-09-23T02:05:26.710Z,87.19
2022-09-23T02:06:26.699Z,87.18
2022-09-23T02:07:26.678Z,87.15
2022-09-23T02:08:26.684Z,87.06
2022-09-23T02:09:26.654Z,87.04
2022-09-23T02:10:26.641Z,87.03
2022-09-23T02:11:26.659Z,87.02
2022-09-23T02:12:26.626Z,87.00
2022-09-23T02:13:26.646Z,86.99
2022-09-23T02:14:26.595Z,86.97
2022-09-23T02:15:26.591Z,86.93
2022-09-23T02:16:26.642Z,86.94
2022-09-23T02:17:26.585Z,86.94
2022-09-23T02:18:26.556Z,86.93
2022-09-23T02:19:26.561Z,86.92
2022-09-23T02:20:26.544Z,86.92
2022-09-23T02:21:26.528Z,86.90
2022-09-23T02:22:26.508Z,86.89
2022-09-23T02:23:26.506Z,86.89
2022-09-23T02:24:26.521Z,86.85
2022-09-23T02:25:26.479Z,86.76
2022-09-23T02:26:26.456Z,86.64
2022-09-23T02:27:26.459Z,86.50
2022-09-23T02:28:26.453Z,86.39
2022-09-23T02:29:26.450Z,86.27
2022-09-23T02:30:26.421Z,86.17
2022-09-23T02:31:26.435Z,86.11
2022-09-23T02:32:26.398Z,86.05
2022-09-23T02:33:26.390Z,86.01
2022-09-23T02:34:26.392Z,86.00
2022-09-23T02:35:26.359Z,86.02
2022-09-23T02:36:26.361Z,86.06
2022-09-23T02:37:26.344Z,86.11
2022-09-23T02:38:26.345Z,86.15
2022-09-23T02:39:26.310Z,86.18
2022-09-23T02:40:26.428Z,86.16
2022-09-23T02:41:26.283Z,86.12
2022-09-23T02:42:26.290Z,86.04
2022-09-23T02:43:26.281Z,86.03
2022-09-23T02:44:26.272Z,85.97
2022-09-23T02:45:26.263Z,85.98
2022-09-23T02:46:26.257Z,85.96
2022-09-23T02:47:26.220Z,85.99
2022-09-23T02:48:26.221Z,86.05
2022-09-23T02:49:26.211Z,86.10
2022-09-23T02:50:26.210Z,86.17
2022-09-23T02:51:26.190Z,86.19
2022-09-23T02:52:26.166Z,86.24
2022-09-23T02:53:26.153Z,86.31
2022-09-23T02:54:26.161Z,86.40
2022-09-23T02:55:26.149Z,86.54
2022-09-23T02:56:26.128Z,86.60
2022-09-23T02:57:26.125Z,86.65
2022-09-23T02:58:26.101Z,86.71
2022-09-23T02:59:26.081Z,86.77
2022-09-23T03:00:26.095Z,86.87
2022-09-23T03:01:26.089Z,86.91
2022-09-23T03:02:26.093Z,86.93
2022-09-23T03:03:26.042Z,86.95
2022-09-23T03:04:26.041Z,86.93
2022-09-23T03:05:26.043Z,86.97
2022-09-23T03:06:26.029Z,87.02
2022-09-23T03:07:25.995Z,87.06
2022-09-23T03:08:25.989Z,87.08
2022-09-23T03:09:26.010Z,87.09
2022-09-23T03:10:25.966Z,87.08
2022-09-23T03:11:25.971Z,87.07
2022-09-23T03:12:25.947Z,87.07
2022-09-23T03:13:29.224Z,87.07
2022-09-23T03:14:25.946Z,87.08
2022-09-23T03:15:25.902Z,87.09
2022-09-23T03:16:25.934Z,87.12
2022-09-23T03:17:25.889Z,87.10
2022-09-23T03:18:25.874Z,87.13
2022-09-23T03:19:25.855Z,87.18
2022-09-23T03:20:25.854Z,87.20
2022-09-23T03:21:25.832Z,87.25
2022-09-23T03:22:25.848Z,87.28
2022-09-23T03:23:25.817Z,87.29
2022-09-23T03:24:25.810Z,87.29
2022-09-23T03:25:25.802Z,87.26
2022-09-23T03:26:25.779Z,87.24
2022-09-23T03:27:25.796Z,87.15
2022-09-23T03:28:25.763Z,87.06
2022-09-23T03:29:25.745Z,87.03
2022-09-23T03:30:25.740Z,87.04
2022-09-23T03:31:25.795Z,86.98
2022-09-23T03:32:25.724Z,86.96
2022-09-23T03:33:28.544Z,86.93
2022-09-23T03:34:25.693Z,86.90
2022-09-23T03:35:25.681Z,86.90
2022-09-23T03:36:25.668Z,86.91
2022-09-23T03:37:25.642Z,86.92
2022-09-23T03:38:25.656Z,86.93
2022-09-23T03:39:25.634Z,86.97
2022-09-23T03:40:25.703Z,87.03
2022-09-23T03:41:25.604Z,87.05
2022-09-23T03:42:25.609Z,87.09
2022-09-23T03:43:25.639Z,87.12
2022-09-23T03:44:25.583Z,87.12
2022-09-23T03:45:25.593Z,87.14
2022-09-23T03:46:25.552Z,87.16
2022-09-23T03:47:25.542Z,87.18
2022-09-23T03:48:25.547Z,87.21
2022-09-23T03:49:25.526Z,87.22
2022-09-23T03:50:25.523Z,87.27
2022-09-23T03:51:25.508Z,87.32
2022-09-23T03:52:25.501Z,87.34
2022-09-23T03:53:25.503Z,87.42
2022-09-23T03:54:25.453Z,87.48
2022-09-23T03:55:25.441Z,87.48
2022-09-23T03:56:25.434Z,87.51
2022-09-23T03:57:25.434Z,87.54
2022-09-23T03:58:25.430Z,87.58
2022-09-23T03:59:25.401Z,87.68
2022-09-23T04:00:25.399Z,87.76
2022-09-23T04:01:25.508Z,87.81
2022-09-23T04:02:25.430Z,87.84
2022-09-23T04:03:25.382Z,87.85
2022-09-23T04:04:25.350Z,87.87
2022-09-23T04:05:25.324Z,87.87
2022-09-23T04:06:25.314Z,87.92
2022-09-23T04:07:25.307Z,87.98
2022-09-23T04:08:25.307Z,88.04
2022-09-23T04:09:25.295Z,88.04
2022-09-23T04:10:25.288Z,88.06
2022-09-23T04:11:25.260Z,88.07
2022-09-23T04:12:25.288Z,88.07
2022-09-23T04:13:25.280Z,88.08
2022-09-23T04:14:25.269Z,88.05
2022-09-23T04:15:25.252Z,88.02
2022-09-23T04:16:25.315Z,88.01
2022-09-23T04:17:25.277Z,87.99
2022-09-23T04:18:25.191Z,87.97
2022-09-23T04:19:25.163Z,87.97
2022-09-23T04:20:25.182Z,87.98
2022-09-23T04:21:25.154Z,87.97
2022-09-23T04:22:25.146Z,87.97
2022-09-23T04:23:25.135Z,88.00
2022-09-23T04:24:25.111Z,88.02
2022-09-23T04:25:25.123Z,88.02
2022-09-23T04:26:25.096Z,88.05
2022-09-23T04:27:25.091Z,88.07
2022-09-23T04:28:25.074Z,88.09
2022-09-23T04:29:25.057Z,88.12
2022-09-23T04:30:25.068Z,88.12
2022-09-23T04:31:25.090Z,88.09
2022-09-23T04:32:25.042Z,88.11
2022-09-23T04:33:25.005Z,88.10
2022-09-23T04:34:25.017Z,88.08
2022-09-23T04:35:24.975Z,88.07
2022-09-23T04:36:24.987Z,88.04
2022-09-23T04:37:24.978Z,88.03
2022-09-23T04:38:24.956Z,88.00
2022-09-23T04:39:24.938Z,88.00
2022-09-23T04:40:24.967Z,87.99
2022-09-23T04:41:24.908Z,88.00
2022-09-23T04:42:24.913Z,87.97
2022-09-23T04:43:24.893Z,87.92
2022-09-23T04:44:24.884Z,87.90
2022-09-23T04:45:24.888Z,87.86
2022-09-23T04:46:24.950Z,87.81
2022-09-23T04:47:24.861Z,87.75
2022-09-23T04:48:24.875Z,87.74
2022-09-23T04:49:24.817Z,87.74
2022-09-23T04:50:24.841Z,87.73
2022-09-23T04:51:24.805Z,87.74
2022-09-23T04:52:24.785Z,87.74
2022-09-23T04:53:24.786Z,87.85
2022-09-23T04:54:24.777Z,87.99
2022-09-23T04:55:24.770Z,88.10
2022-09-23T04:56:24.747Z,88.16
2022-09-23T04:57:24.747Z,88.23
2022-09-23T04:58:24.728Z,88.29
2022-09-23T04:59:24.707Z,88.38
2022-09-23T05:00:24.748Z,88.41
2022-09-23T05:01:24.882Z,88.48
2022-09-23T05:02:24.761Z,88.57
2022-09-23T05:03:24.667Z,88.59
2022-09-23T05:04:24.657Z,88.64
2022-09-23T05:05:24.661Z,88.68
2022-09-23T05:06:24.651Z,88.69
2022-09-23T05:07:24.621Z,88.69
2022-09-23T05:08:24.625Z,88.71
2022-09-23T05:09:24.598Z,88.72
2022-09-23T05:10:24.613Z,88.73
2022-09-23T05:11:24.581Z,88.72
2022-09-23T05:12:24.588Z,88.74
2022-09-23T05:13:24.561Z,88.74
2022-09-23T05:14:24.542Z,88.72
2022-09-23T05:15:24.534Z,88.74
2022-09-23T05:16:24.638Z,88.74
2022-09-23T05:17:24.514Z,88.75
2022-09-23T05:18:24.499Z,88.78
2022-09-23T05:19:24.502Z,88.77
2022-09-23T05:20:24.481Z,88.82
2022-09-23T05:21:24.481Z,88.84
2022-09-23T05:22:24.461Z,88.83
2022-09-23T05:23:24.447Z,88.81
2022-09-23T05:24:24.418Z,88.80
2022-09-23T05:25:24.429Z,88.76
2022-09-23T05:26:24.427Z,88.75
2022-09-23T05:27:24.395Z,88.71
2022-09-23T05:28:24.382Z,88.71
2022-09-23T05:29:24.373Z,88.66
2022-09-23T05:30:24.363Z,88.66
2022-09-23T05:31:24.381Z,88.66
2022-09-23T05:32:24.350Z,88.59
2022-09-23T05:33:24.331Z,88.58
2022-09-23T05:34:24.321Z,88.63
2022-09-23T05:35:24.312Z,88.60
2022-09-23T05:36:24.309Z,88.60
2022-09-23T05:37:24.285Z,88.55
2022-09-23T05:38:24.271Z,88.57
2022-09-23T05:39:24.261Z,88.49
2022-09-23T05:40:24.280Z,88.52
2022-09-23T05:41:24.242Z,88.48
2022-09-23T05:42:24.248Z,88.40
2022-09-23T05:43:24.214Z,88.34
2022-09-23T05:44:24.202Z,88.24
2022-09-23T05:45:26.260Z,88.15
2022-09-23T05:46:24.276Z,88.11
2022-09-23T05:47:24.200Z,88.13
2022-09-23T05:48:24.152Z,88.07
2022-09-23T05:49:37.732Z,88.07
2022-09-23T05:50:25.158Z,88.07
2022-09-23T05:51:28.774Z,88.06
2022-09-23T05:52:25.141Z,88.06
2022-09-23T05:53:24.100Z,88.10
2022-09-23T05:54:24.092Z,88.08
2022-09-23T05:55:24.090Z,88.10
2022-09-23T05:56:24.072Z,88.19
2022-09-23T05:57:24.078Z,88.25
2022-09-23T05:58:24.084Z,88.23
2022-09-23T05:59:24.032Z,88.18
2022-09-23T06:00:24.034Z,88.20
2022-09-23T06:01:24.027Z,88.13
2022-09-23T06:02:24.137Z,88.06
2022-09-23T06:03:24.037Z,88.01
2022-09-23T06:04:24.018Z,88.03
2022-09-23T06:05:23.974Z,87.97
2022-09-23T06:06:23.962Z,87.88
2022-09-23T06:07:23.960Z,87.75
2022-09-23T06:08:23.944Z,87.63
2022-09-23T06:09:23.923Z,87.55
2022-09-23T06:10:23.912Z,87.44
2022-09-23T06:11:23.902Z,87.33
2022-09-23T06:12:23.902Z,87.32
2022-09-23T06:13:23.891Z,87.19
2022-09-23T06:14:23.880Z,87.10
2022-09-23T06:15:23.843Z,87.02
2022-09-23T06:16:23.884Z,86.98
2022-09-23T06:17:23.844Z,86.99
2022-09-23T06:18:23.827Z,87.00
2022-09-23T06:19:23.807Z,86.98
2022-09-23T06:20:23.796Z,87.00
2022-09-23T06:21:23.780Z,86.93
2022-09-23T06:22:23.773Z,86.92
2022-09-23T06:23:26.400Z,86.82
2022-09-23T06:24:28.620Z,86.74
2022-09-23T06:25:24.738Z,86.68
2022-09-23T06:26:23.743Z,86.51
2022-09-23T06:27:23.722Z,86.36
2022-09-23T06:28:23.712Z,86.24
2022-09-23T06:29:23.697Z,86.23
2022-09-23T06:30:23.703Z,86.14
2022-09-23T06:31:23.724Z,86.11
2022-09-23T06:32:23.664Z,86.03
2022-09-23T06:33:34.719Z,86.17
2022-09-23T06:34:24.635Z,86.01
2022-09-23T06:35:27.419Z,86.05
2022-09-23T06:36:39.136Z,86.20
2022-09-23T06:37:24.594Z,86.31
2022-09-23T06:38:23.588Z,86.21
2022-09-23T06:39:23.589Z,86.18
2022-09-23T06:40:23.691Z,86.07
2022-09-23T06:41:23.552Z,85.87
2022-09-23T06:42:23.545Z,85.75
2022-09-23T06:43:23.559Z,85.45
2022-09-23T06:44:23.594Z,85.33
2022-09-23T06:45:23.520Z,85.19
2022-09-23T06:46:23.575Z,84.99
2022-09-23T06:47:23.513Z,84.84
2022-09-23T06:48:23.484Z,84.49
2022-09-23T06:49:23.494Z,84.04
2022-09-23T06:50:23.473Z,83.48
2022-09-23T06:51:23.470Z,83.21
2022-09-23T06:52:23.427Z,82.76
2022-09-23T06:53:23.435Z,81.95
2022-09-23T06:54:23.432Z,80.90
2022-09-23T06:55:23.461Z,80.43
2022-09-23T06:56:23.399Z,80.35
2022-09-23T06:57:23.383Z,79.36
2022-09-23T06:58:23.369Z,78.49
2022-09-23T06:59:23.367Z,77.87
2022-09-23T07:00:23.336Z,77.40
2022-09-23T07:01:23.430Z,76.80
2022-09-23T07:02:23.420Z,76.61
2022-09-23T07:03:23.316Z,75.98
2022-09-23T07:04:26.119Z,75.28
2022-09-23T07:05:24.327Z,75.04
2022-09-23T07:06:23.282Z,74.29
2022-09-23T07:07:23.275Z,73.92
2022-09-23T07:08:23.263Z,74.07
2022-09-23T07:09:23.246Z,74.13
2022-09-23T07:10:23.234Z,73.95
2022-09-23T07:11:23.264Z,73.72
2022-09-23T07:12:23.196Z,74.13
2022-09-23T07:13:23.212Z,73.97
2022-09-23T07:14:23.176Z,74.51
2022-09-23T07:15:23.196Z,74.69
2022-09-23T07:16:23.274Z,74.60
2022-09-23T07:17:23.159Z,74.18
2022-09-23T07:18:23.154Z,74.18
2022-09-23T07:19:23.138Z,73.87
2022-09-23T07:20:23.118Z,73.79
2022-09-23T07:21:23.118Z,73.39
2022-09-23T07:22:23.100Z,73.25
2022-09-23T07:23:23.078Z,73.44
2022-09-23T07:24:23.062Z,73.21
2022-09-23T07:25:23.058Z,73.24
2022-09-23T07:26:23.087Z,72.80
2022-09-23T07:27:23.072Z,73.22
2022-09-23T07:28:23.044Z,73.78
2022-09-23T07:29:23.037Z,73.91
2022-09-23T07:30:25.415Z,73.43
2022-09-23T07:31:34.953Z,72.80
2022-09-23T07:32:24.069Z,72.29
2022-09-23T07:33:31.809Z,72.06
2022-09-23T07:34:23.962Z,72.14
2022-09-23T07:35:22.940Z,72.28
2022-09-23T07:36:22.954Z,71.03
2022-09-23T07:37:22.920Z,70.83
2022-09-23T07:38:22.901Z,70.07
2022-09-23T07:39:22.894Z,70.43
2022-09-23T07:40:22.942Z,69.92
2022-09-23T07:41:22.872Z,69.60
2022-09-23T07:42:22.877Z,69.63
2022-09-23T07:43:22.855Z,69.62
2022-09-23T07:44:22.851Z,68.81
2022-09-23T07:45:22.853Z,69.08
2022-09-23T07:46:22.892Z,69.48
2022-09-23T07:47:22.812Z,69.59
2022-09-23T07:48:22.831Z,69.21
2022-09-23T07:49:22.797Z,68.65
2022-09-23T07:50:22.993Z,68.69
2022-09-23T07:51:22.788Z,68.61
2022-09-23T07:52:22.792Z,68.81
2022-09-23T07:53:22.747Z,69.19
2022-09-23T07:54:22.746Z,68.99
2022-09-23T07:55:22.742Z,68.91
2022-09-23T07:56:22.701Z,68.14
2022-09-23T07:57:22.712Z,67.55
2022-09-23T07:58:22.690Z,67.37
2022-09-23T07:59:22.677Z,67.39
2022-09-23T08:00:22.851Z,67.13
2022-09-23T08:01:22.729Z,66.51
2022-09-23T08:02:22.762Z,66.82
2022-09-23T08:03:22.634Z,66.24
2022-09-23T08:04:22.614Z,66.18
2022-09-23T08:05:22.600Z,66.29
2022-09-23T08:06:22.614Z,65.80
2022-09-23T08:07:22.605Z,65.99
2022-09-23T08:08:22.596Z,65.73
2022-09-23T08:09:22.575Z,66.22
2022-09-23T08:10:22.693Z,66.00
2022-09-23T08:11:22.545Z,65.18
2022-09-23T08:12:22.563Z,64.33
2022-09-23T08:13:22.572Z,64.73
2022-09-23T08:14:22.512Z,65.00
2022-09-23T08:15:22.494Z,65.17
2022-09-23T08:16:22.558Z,65.67
2022-09-23T08:17:22.487Z,64.91
2022-09-23T08:18:22.489Z,65.22
2022-09-23T08:19:22.453Z,65.06
2022-09-23T08:20:22.486Z,64.38
2022-09-23T08:21:22.432Z,64.65
2022-09-23T08:22:22.416Z,64.18
2022-09-23T08:23:22.419Z,64.66
2022-09-23T08:24:22.397Z,64.47
2022-09-23T08:25:22.847Z,64.46
2022-09-23T08:26:22.663Z,64.30
2022-09-23T08:27:22.362Z,64.51
2022-09-23T08:28:22.376Z,64.51
2022-09-23T08:29:22.351Z,64.63
2022-09-23T08:30:22.336Z,64.54
2022-09-23T08:31:22.428Z,63.44
2022-09-23T08:32:22.302Z,63.11
2022-09-23T08:33:23.525Z,62.99
2022-09-23T08:34:22.308Z,63.43
2022-09-23T08:35:22.283Z,63.60
2022-09-23T08:36:22.274Z,64.58
2022-09-23T08:37:22.238Z,64.43
2022-09-23T08:38:22.223Z,64.93
2022-09-23T08:39:22.268Z,64.58
2022-09-23T08:40:22.337Z,64.27
2022-09-23T08:41:22.224Z,64.46
2022-09-23T08:42:22.212Z,65.21
2022-09-23T08:43:22.173Z,64.36
2022-09-23T08:44:22.169Z,64.47
2022-09-23T08:45:22.165Z,65.01
2022-09-23T08:46:22.180Z,64.58
2022-09-23T08:47:22.167Z,64.46
2022-09-23T08:48:22.111Z,65.88
2022-09-23T08:49:22.129Z,66.08
2022-09-23T08:50:22.113Z,65.49
2022-09-23T08:51:22.095Z,65.84
2022-09-23T08:52:22.070Z,65.36
2022-09-23T08:53:22.070Z,65.93
2022-09-23T08:54:22.053Z,64.96
2022-09-23T08:55:22.043Z,65.00
2022-09-23T08:56:22.033Z,64.95
2022-09-23T08:57:22.021Z,64.92
2022-09-23T08:58:26.213Z,64.70
2022-09-23T08:59:22.049Z,63.58
2022-09-23T09:00:22.077Z,63.00
2022-09-23T09:01:22.000Z,63.30
2022-09-23T09:02:22.028Z,64.03
2022-09-23T09:03:21.944Z,63.77
2022-09-23T09:04:21.932Z,64.15
2022-09-23T09:05:21.964Z,64.27
2022-09-23T09:06:21.904Z,63.82
2022-09-23T09:07:38.155Z,63.89
2022-09-23T09:08:22.889Z,63.44
2022-09-23T09:09:21.863Z,63.23
2022-09-23T09:10:21.864Z,62.99
2022-09-23T09:11:21.841Z,63.27
2022-09-23T09:12:21.851Z,63.48
2022-09-23T09:13:21.851Z,63.44
2022-09-23T09:14:21.817Z,63.76
2022-09-23T09:15:24.716Z,63.45
2022-09-23T09:16:36.627Z,63.67
2022-09-23T09:17:22.776Z,63.63
2022-09-23T09:18:21.769Z,64.75
2022-09-23T09:19:21.796Z,64.44
2022-09-23T09:20:21.759Z,64.30
2022-09-23T09:21:21.788Z,65.02
2022-09-23T09:22:21.740Z,65.00
2022-09-23T09:23:21.725Z,65.46
2022-09-23T09:24:21.704Z,65.36
2022-09-23T09:25:21.728Z,65.35
2022-09-23T09:26:21.712Z,65.82
2022-09-23T09:27:21.688Z,65.72
2022-09-23T09:28:21.683Z,65.49
2022-09-23T09:29:34.765Z,65.11
2022-09-23T09:30:22.673Z,64.68
2022-09-23T09:31:21.681Z,64.49
2022-09-23T09:32:21.619Z,64.46
2022-09-23T09:33:21.602Z,64.51
2022-09-23T09:34:21.577Z,64.76
2022-09-23T09:35:21.615Z,64.39
2022-09-23T09:36:21.587Z,64.47
2022-09-23T09:37:21.565Z,64.73
2022-09-23T09:38:21.543Z,64.80
2022-09-23T09:39:25.526Z,65.23
2022-09-23T09:40:21.565Z,63.90
2022-09-23T09:41:21.522Z,64.23
2022-09-23T09:42:21.498Z,64.31
2022-09-23T09:43:21.478Z,64.47
2022-09-23T09:44:21.459Z,64.56
2022-09-23T09:45:21.449Z,65.09
2022-09-23T09:46:21.480Z,64.74
2022-09-23T09:47:21.462Z,64.01
2022-09-23T09:48:21.421Z,64.56
2022-09-23T09:49:21.399Z,64.73
2022-09-23T09:50:21.391Z,65.30
2022-09-23T09:51:21.390Z,65.04
2022-09-23T09:52:21.397Z,65.40
2022-09-23T09:53:21.325Z,64.81
2022-09-23T09:54:21.325Z,64.67
2022-09-23T09:55:21.295Z,64.75
2022-09-23T09:56:21.279Z,64.93
2022-09-23T09:57:21.257Z,65.15
2022-09-23T09:58:21.278Z,65.45
2022-09-23T09:59:21.247Z,65.09
2022-09-23T10:00:21.230Z,65.27
2022-09-23T10:01:21.331Z,65.05
2022-09-23T10:02:21.208Z,65.30
2022-09-23T10:03:21.228Z,65.38
2022-09-23T10:04:21.233Z,65.17
2022-09-23T10:05:21.195Z,64.82
2022-09-23T10:06:21.160Z,64.29
2022-09-23T10:07:21.154Z,64.97
2022-09-23T10:08:21.139Z,65.47
2022-09-23T10:09:21.156Z,65.24
2022-09-23T10:10:32.243Z,65.07
2022-09-23T10:11:22.115Z,64.94
2022-09-23T10:12:21.103Z,64.48
2022-09-23T10:13:21.080Z,64.10
2022-09-23T10:14:21.087Z,63.34
2022-09-23T10:15:21.074Z,62.90
2022-09-23T10:16:21.095Z,63.50
2022-09-23T10:17:21.041Z,63.95
2022-09-23T10:18:21.035Z,64.21
2022-09-23T10:19:21.023Z,64.51
2022-09-23T10:20:20.989Z,64.45
2022-09-23T10:21:25.455Z,63.84
2022-09-23T10:22:21.982Z,63.31
2022-09-23T10:23:20.971Z,63.56
2022-09-23T10:24:20.969Z,64.06
2022-09-23T10:25:20.948Z,64.56
2022-09-23T10:26:20.935Z,65.09
2022-09-23T10:27:20.938Z,65.25
2022-09-23T10:28:20.906Z,64.79
2022-09-23T10:29:20.916Z,64.55
2022-09-23T10:30:20.907Z,64.33
2022-09-23T10:31:20.883Z,64.46
2022-09-23T10:32:20.857Z,64.60
2022-09-23T10:33:20.866Z,64.77
2022-09-23T10:34:20.835Z,64.85
2022-09-23T10:35:20.854Z,65.17
2022-09-23T10:36:20.832Z,65.10
2022-09-23T10:37:20.820Z,64.92
2022-09-23T10:38:20.800Z,65.29
2022-09-23T10:39:20.798Z,65.41
2022-09-23T10:40:20.902Z,66.42
2022-09-23T10:41:20.779Z,65.90
2022-09-23T10:42:20.761Z,65.75
2022-09-23T10:43:20.748Z,65.58
2022-09-23T10:44:20.756Z,65.84
2022-09-23T10:45:20.727Z,66.57
2022-09-23T10:46:20.798Z,65.38
2022-09-23T10:47:20.699Z,65.45
2022-09-23T10:48:20.687Z,66.01
2022-09-23T10:49:20.688Z,65.71
2022-09-23T10:50:20.661Z,65.82
2022-09-23T10:51:25.451Z,65.87
2022-09-23T10:52:21.663Z,66.53
2022-09-23T10:53:20.640Z,65.78
2022-09-23T10:54:20.618Z,65.49
2022-09-23T10:55:20.614Z,65.19
2022-09-23T10:56:20.621Z,65.14
2022-09-23T10:57:20.603Z,65.23
2022-09-23T10:58:20.604Z,65.77
2022-09-23T10:59:20.577Z,65.65
2022-09-23T11:00:20.554Z,66.58
2022-09-23T11:01:20.674Z,66.45
2022-09-23T11:02:20.536Z,65.87
2022-09-23T11:03:20.529Z,65.88
2022-09-23T11:04:20.858Z,65.84
2022-09-23T11:05:20.506Z,65.32
2022-09-23T11:06:20.497Z,65.17
2022-09-23T11:07:20.496Z,65.73
2022-09-23T11:08:20.478Z,66.09
2022-09-23T11:09:20.475Z,65.77
2022-09-23T11:10:35.343Z,65.42
2022-09-23T11:11:21.451Z,66.09
2022-09-23T11:12:20.430Z,65.11
2022-09-23T11:13:20.413Z,64.87
2022-09-23T11:14:20.455Z,65.76
2022-09-23T11:15:20.382Z,65.32
2022-09-23T11:16:20.554Z,64.86
2022-09-23T11:17:20.375Z,64.78
2022-09-23T11:18:20.376Z,65.19
2022-09-23T11:19:20.356Z,65.48
2022-09-23T11:20:20.350Z,65.57
2022-09-23T11:21:20.325Z,65.57
2022-09-23T11:22:20.306Z,64.76
2022-09-23T11:23:20.295Z,65.25
2022-09-23T11:24:20.306Z,66.04
2022-09-23T11:25:20.287Z,65.46
2022-09-23T11:26:20.268Z,65.14
2022-09-23T11:27:20.256Z,65.50
2022-09-23T11:28:20.248Z,65.04
2022-09-23T11:29:20.243Z,64.61
2022-09-23T11:30:20.257Z,64.02
2022-09-23T11:31:20.311Z,64.22
2022-09-23T11:32:20.198Z,64.48
2022-09-23T11:33:20.186Z,63.97
2022-09-23T11:34:20.272Z,63.98
2022-09-23T11:35:20.194Z,63.97
2022-09-23T11:36:20.172Z,64.26
2022-09-23T11:37:20.127Z,64.43
2022-09-23T11:38:20.124Z,64.32
2022-09-23T11:39:20.135Z,63.87
2022-09-23T11:40:20.191Z,64.11
2022-09-23T11:41:20.093Z,63.50
2022-09-23T11:42:20.084Z,64.48
2022-09-23T11:43:20.104Z,64.06
2022-09-23T11:44:20.098Z,64.15
2022-09-23T11:45:20.074Z,64.13
2022-09-23T11:46:20.097Z,63.89
2022-09-23T11:47:20.025Z,63.98
2022-09-23T11:48:20.017Z,63.70
2022-09-23T11:49:20.012Z,63.65
2022-09-23T11:50:19.993Z,63.24
2022-09-23T11:51:20.005Z,63.25
2022-09-23T11:52:19.970Z,62.79
2022-09-23T11:53:19.959Z,63.66
2022-09-23T11:54:20.856Z,63.13
2022-09-23T11:55:22.991Z,62.99
2022-09-23T11:56:32.371Z,63.80
2022-09-23T11:57:20.915Z,62.41
2022-09-23T11:58:25.642Z,62.41
2022-09-23T11:59:31.020Z,62.61
2022-09-23T12:00:20.884Z,62.94
2022-09-23T12:01:28.098Z,63.10
2022-09-23T12:02:22.951Z,63.05
2022-09-23T12:03:20.278Z,63.09
2022-09-23T12:04:21.305Z,63.86
2022-09-23T12:05:19.991Z,62.84
2022-09-23T12:06:19.823Z,63.33
2022-09-23T12:07:19.806Z,63.28
2022-09-23T12:08:19.792Z,63.52
2022-09-23T12:09:30.971Z,63.17
2022-09-23T12:10:20.790Z,62.80
2022-09-23T12:11:19.763Z,63.07
2022-09-23T12:12:22.876Z,63.60
2022-09-23T12:13:20.729Z,63.03
2022-09-23T12:14:19.718Z,63.01
2022-09-23T12:15:19.707Z,62.82
2022-09-23T12:16:19.760Z,63.15
2022-09-23T12:17:19.693Z,63.24
2022-09-23T12:18:23.163Z,62.37
2022-09-23T12:19:19.694Z,62.80
2022-09-23T12:20:19.701Z,62.80
2022-09-23T12:21:39.114Z,62.45
2022-09-23T12:22:20.647Z,63.09
2022-09-23T12:23:19.633Z,63.14
2022-09-23T12:24:19.628Z,63.28
2022-09-23T12:25:19.605Z,63.38
2022-09-23T12:26:19.626Z,62.89
2022-09-23T12:27:19.582Z,63.13
2022-09-23T12:28:19.576Z,62.45
2022-09-23T12:29:19.630Z,62.95
2022-09-23T12:30:19.596Z,62.93
2022-09-23T12:31:19.609Z,62.42
2022-09-23T12:32:19.550Z,62.25
2022-09-23T12:33:19.507Z,62.76
2022-09-23T12:34:19.522Z,62.72
2022-09-23T12:35:19.502Z,62.92
2022-09-23T12:36:19.510Z,62.98
2022-09-23T12:37:19.511Z,63.03
2022-09-23T12:38:19.467Z,63.38
2022-09-23T12:39:19.463Z,63.86
2022-09-23T12:40:19.510Z,63.59
2022-09-23T12:41:19.463Z,62.58
2022-09-23T12:42:19.547Z,62.43
2022-09-23T12:43:19.428Z,62.55
2022-09-23T12:44:19.398Z,63.14
2022-09-23T12:45:19.402Z,62.34
2022-09-23T12:46:19.402Z,62.82
2022-09-23T12:47:19.398Z,62.43
2022-09-23T12:48:19.365Z,62.64
2022-09-23T12:49:19.335Z,62.19
2022-09-23T12:50:23.730Z,62.00
2022-09-23T12:51:20.328Z,62.41
2022-09-23T12:52:19.356Z,62.19